Seadream 1 — C6PW8 — position and weather

sailwx.info

Track history (hours):
 
Tides and Currents Weather Stations Pressure Air Temp Water Temp Dewpoint Dewpoint Depression Visibility Wind Speed Wind Dir Waves Ship Positions

Seadream 1

Last reported at 2016-Aug-31 20:32 UTC. Time now 2016-Sep-25 03:48 UTC.
Position N 38°43' E 015°13'.
Warning: this ship's position is 24 days out of date.

Length 105 m; draft 4.3 m.

Type: Ship. MMSI: 308908000.

Date/timePositionNaut miles runAvg speedWind from/ knotsBaromVisibWave heightAir tempDewpointWater temp
2016-Aug-31 20:32N 38°43' E 015°13'1615.8
2016-Aug-31 19:33N 38°31' E 015°26'1515.3
2016-Aug-31 18:34N 38°20' E 015°39'1313.0
2016-Aug-31 17:33N 38°07' E 015°35'1616.0
2016-Aug-31 16:33N 37°54' E 015°24'7 1.1
2016-Aug-31 10:06N 37°50' E 015°17'0 0.0
2016-Aug-31 09:27N 37°50' E 015°17'0 0.0
2016-Aug-31 08:30N 37°50' E 015°17'0 0.0
2016-Aug-31 07:22N 37°50' E 015°17'0 0.1
2016-Aug-31 05:34N 37°50' E 015°17'10 8.4
2016-Aug-31 04:26N 37°50' E 015°29'8 8.9
2016-Aug-31 03:33N 37°51' E 015°39'9 9.2
2016-Aug-31 02:33N 37°52' E 015°50'271 5.4
2016-Aug-29 00:26N 41°52' E 018°33'1112.1
2016-Aug-28 23:33N 42°03' E 018°34'1211.9
2016-Aug-28 22:34N 42°15' E 018°33'1111.3
2016-Aug-28 21:34N 42°26' E 018°33'7 6.6
2016-Aug-28 20:34N 42°29' E 018°42'4 3.5
2016-Aug-28 19:33N 42°27' E 018°46'0 0.0
2016-Aug-28 18:32N 42°27' E 018°46'0 0.0
2016-Aug-28 17:33N 42°27' E 018°46'0 0.0
2016-Aug-28 16:31N 42°27' E 018°46'0 0.0
2016-Aug-28 15:31N 42°27' E 018°46'0 0.0
2016-Aug-28 14:32N 42°27' E 018°46'0 0.0
2016-Aug-28 13:33N 42°27' E 018°46'0 0.0
2016-Aug-28 12:33N 42°27' E 018°46'0 0.0
2016-Aug-28 11:31N 42°27' E 018°46'1 0.9
2016-Aug-28 10:32N 42°26' E 018°46'0 0.0
2016-Aug-28 09:32N 42°26' E 018°46'0 0.0
2016-Aug-28 08:32N 42°26' E 018°46'0 0.0
2016-Aug-28 07:33N 42°26' E 018°46'3 2.9
2016-Aug-28 06:33N 42°28' E 018°44'5 4.9
2016-Aug-28 05:33N 42°26' E 018°38'5 5.3
2016-Aug-28 04:34N 42°22' E 018°33'3 3.2
2016-Aug-28 03:33N 42°19' E 018°35'0 0.3
2016-Aug-28 02:34N 42°19' E 018°34'0 0.4
2016-Aug-28 01:34N 42°18' E 018°34'0 0.3
2016-Aug-28 00:34N 42°18' E 018°34'2 1.7
2016-Aug-27 23:34N 42°18' E 018°32'4 4.1
2016-Aug-27 22:34N 42°20' E 018°27'4 3.9
2016-Aug-27 21:34N 42°22' E 018°22'4 3.8
2016-Aug-27 20:33N 42°24' E 018°18'4 4.1
2016-Aug-27 19:34N 42°27' E 018°14'4 4.2
2016-Aug-27 18:34N 42°29' E 018°09'5 4.5
2016-Aug-27 17:33N 42°33' E 018°05'1 0.0
2016-Aug-26 09:32N 42°34' E 018°05'7 7.3
2016-Aug-26 08:32N 42°29' E 018°12'1010.4
2016-Aug-26 07:33N 42°23' E 018°23'8 8.3
2016-Aug-26 06:33N 42°26' E 018°34'9 4.5
2016-Aug-26 04:33N 42°26' E 018°46'0 0.0
2016-Aug-26 03:33N 42°26' E 018°46'0 0.0
2016-Aug-26 02:31N 42°26' E 018°46'0 0.0
2016-Aug-26 01:32N 42°26' E 018°46'0 0.0
2016-Aug-26 00:32N 42°26' E 018°46'0 0.0
2016-Aug-25 23:33N 42°26' E 018°46'0 0.0
2016-Aug-25 22:31N 42°26' E 018°46'0 0.0
2016-Aug-25 21:31N 42°26' E 018°46'0 0.0
2016-Aug-25 20:32N 42°26' E 018°46'0 0.0
2016-Aug-25 19:31N 42°26' E 018°46'0 0.0
2016-Aug-25 18:32N 42°26' E 018°46'0 0.0
2016-Aug-25 17:32N 42°26' E 018°46'0 0.0
2016-Aug-25 16:33N 42°26' E 018°46'0 0.0
2016-Aug-25 15:31N 42°26' E 018°46'0 0.0
2016-Aug-25 14:33N 42°26' E 018°46'0 0.4
2016-Aug-25 13:31N 42°26' E 018°46'0 0.0
2016-Aug-25 12:32N 42°26' E 018°46'0 0.0
2016-Aug-25 11:33N 42°26' E 018°46'0 0.0
2016-Aug-25 10:33N 42°26' E 018°46'0 0.0
2016-Aug-25 09:31N 42°26' E 018°46'0 0.0
2016-Aug-25 08:32N 42°26' E 018°46'0 0.5
2016-Aug-25 07:33N 42°26' E 018°46'4 3.8
2016-Aug-25 06:34N 42°28' E 018°41'14 7.1
2016-Aug-25 04:33N 42°24' E 018°22'9 9.5
2016-Aug-25 03:34N 42°28' E 018°10'9 8.8
2016-Aug-25 02:32N 42°31' E 017°59'  
Track history (hours):
 
Tides and Currents Weather Stations Pressure Air Temp Water Temp Dewpoint Dewpoint Depression Visibility Wind Speed Wind Dir Waves Ship Positions

Seadream 1

Last reported at 2016-Aug-31 20:32 UTC. Time now 2016-Sep-25 03:48 UTC.
Position N 38°43' E 015°13'.
Warning: this ship's position is 24 days out of date.

Length 105 m; draft 4.3 m.

Type: Ship. MMSI: 308908000.

Date/timePositionNaut miles runAvg speedWind from/ knotsBaromVisibWave heightAir tempDewpointWater temp
2016-Aug-31 20:32N 38°43' E 015°13'1615.8
2016-Aug-31 19:33N 38°31' E 015°26'1515.3
2016-Aug-31 18:34N 38°20' E 015°39'1313.0
2016-Aug-31 17:33N 38°07' E 015°35'1616.0
2016-Aug-31 16:33N 37°54' E 015°24'7 1.1
2016-Aug-31 10:06N 37°50' E 015°17'0 0.0
2016-Aug-31 09:27N 37°50' E 015°17'0 0.0
2016-Aug-31 08:30N 37°50' E 015°17'0 0.0
2016-Aug-31 07:22N 37°50' E 015°17'0 0.1
2016-Aug-31 05:34N 37°50' E 015°17'10 8.4
2016-Aug-31 04:26N 37°50' E 015°29'8 8.9
2016-Aug-31 03:33N 37°51' E 015°39'9 9.2
2016-Aug-31 02:33N 37°52' E 015°50'271 5.4
2016-Aug-29 00:26N 41°52' E 018°33'1112.1
2016-Aug-28 23:33N 42°03' E 018°34'1211.9
2016-Aug-28 22:34N 42°15' E 018°33'1111.3
2016-Aug-28 21:34N 42°26' E 018°33'7 6.6
2016-Aug-28 20:34N 42°29' E 018°42'4 3.5
2016-Aug-28 19:33N 42°27' E 018°46'0 0.0
2016-Aug-28 18:32N 42°27' E 018°46'0 0.0
2016-Aug-28 17:33N 42°27' E 018°46'0 0.0
2016-Aug-28 16:31N 42°27' E 018°46'0 0.0
2016-Aug-28 15:31N 42°27' E 018°46'0 0.0
2016-Aug-28 14:32N 42°27' E 018°46'0 0.0
2016-Aug-28 13:33N 42°27' E 018°46'0 0.0
2016-Aug-28 12:33N 42°27' E 018°46'0 0.0
2016-Aug-28 11:31N 42°27' E 018°46'1 0.9
2016-Aug-28 10:32N 42°26' E 018°46'0 0.0
2016-Aug-28 09:32N 42°26' E 018°46'0 0.0
2016-Aug-28 08:32N 42°26' E 018°46'0 0.0
2016-Aug-28 07:33N 42°26' E 018°46'3 2.9
2016-Aug-28 06:33N 42°28' E 018°44'5 4.9
2016-Aug-28 05:33N 42°26' E 018°38'5 5.3
2016-Aug-28 04:34N 42°22' E 018°33'3 3.2
2016-Aug-28 03:33N 42°19' E 018°35'0 0.3
2016-Aug-28 02:34N 42°19' E 018°34'0 0.4
2016-Aug-28 01:34N 42°18' E 018°34'0 0.3
2016-Aug-28 00:34N 42°18' E 018°34'2 1.7
2016-Aug-27 23:34N 42°18' E 018°32'4 4.1
2016-Aug-27 22:34N 42°20' E 018°27'4 3.9
2016-Aug-27 21:34N 42°22' E 018°22'4 3.8
2016-Aug-27 20:33N 42°24' E 018°18'4 4.1
2016-Aug-27 19:34N 42°27' E 018°14'4 4.2
2016-Aug-27 18:34N 42°29' E 018°09'5 4.5
2016-Aug-27 17:33N 42°33' E 018°05'1 0.0
2016-Aug-26 09:32N 42°34' E 018°05'7 7.3
2016-Aug-26 08:32N 42°29' E 018°12'1010.4
2016-Aug-26 07:33N 42°23' E 018°23'8 8.3
2016-Aug-26 06:33N 42°26' E 018°34'9 4.5
2016-Aug-26 04:33N 42°26' E 018°46'0 0.0
2016-Aug-26 03:33N 42°26' E 018°46'0 0.0
2016-Aug-26 02:31N 42°26' E 018°46'0 0.0
2016-Aug-26 01:32N 42°26' E 018°46'0 0.0
2016-Aug-26 00:32N 42°26' E 018°46'0 0.0
2016-Aug-25 23:33N 42°26' E 018°46'0 0.0
2016-Aug-25 22:31N 42°26' E 018°46'0 0.0
2016-Aug-25 21:31N 42°26' E 018°46'0 0.0
2016-Aug-25 20:32N 42°26' E 018°46'0 0.0
2016-Aug-25 19:31N 42°26' E 018°46'0 0.0
2016-Aug-25 18:32N 42°26' E 018°46'0 0.0
2016-Aug-25 17:32N 42°26' E 018°46'0 0.0
2016-Aug-25 16:33N 42°26' E 018°46'0 0.0
2016-Aug-25 15:31N 42°26' E 018°46'0 0.0
2016-Aug-25 14:33N 42°26' E 018°46'0 0.4
2016-Aug-25 13:31N 42°26' E 018°46'0 0.0
2016-Aug-25 12:32N 42°26' E 018°46'0 0.0
2016-Aug-25 11:33N 42°26' E 018°46'0 0.0
2016-Aug-25 10:33N 42°26' E 018°46'0 0.0
2016-Aug-25 09:31N 42°26' E 018°46'0 0.0
2016-Aug-25 08:32N 42°26' E 018°46'0 0.5
2016-Aug-25 07:33N 42°26' E 018°46'4 3.8
2016-Aug-25 06:34N 42°28' E 018°41'14 7.1
2016-Aug-25 04:33N 42°24' E 018°22'9 9.5
2016-Aug-25 03:34N 42°28' E 018°10'9 8.8
2016-Aug-25 02:32N 42°31' E 017°59'  

Dump ship's entire track history